sensor_id;sensor_type;location;lat;lon;timestamp;pressure;altitude;pressure_sealevel;temperature;humidity
9893;BME280;4985;49.092;8.542;2023-03-02T00:01:48;99542.56;;;12.26;52.93
9893;BME280;4985;49.092;8.542;2023-03-02T00:04:18;99543.41;;;12.26;52.91
9893;BME280;4985;49.092;8.542;2023-03-02T00:06:46;99537.31;;;12.26;52.91
9893;BME280;4985;49.092;8.542;2023-03-02T00:09:13;99540.94;;;12.24;52.92
9893;BME280;4985;49.092;8.542;2023-03-02T00:11:40;99545.22;;;12.26;52.91
9893;BME280;4985;49.092;8.542;2023-03-02T00:14:07;99534.66;;;12.26;52.92
9893;BME280;4985;49.092;8.542;2023-03-02T00:16:35;99540.75;;;12.26;52.93
9893;BME280;4985;49.092;8.542;2023-03-02T00:19:01;99537.31;;;12.26;52.92
9893;BME280;4985;49.092;8.542;2023-03-02T00:21:28;99536.47;;;12.25;52.91
9893;BME280;4985;49.092;8.542;2023-03-02T00:23:56;99533.00;;;12.24;52.90
9893;BME280;4985;49.092;8.542;2023-03-02T00:26:22;99542.56;;;12.26;52.91
9893;BME280;4985;49.092;8.542;2023-03-02T00:28:49;99541.75;;;12.25;52.89
9893;BME280;4985;49.092;8.542;2023-03-02T00:31:15;99532.34;;;12.22;52.89
9893;BME280;4985;49.092;8.542;2023-03-02T00:33:43;99542.56;;;12.26;52.90
9893;BME280;4985;49.092;8.542;2023-03-02T00:36:14;99529.37;;;12.26;52.89
9893;BME280;4985;49.092;8.542;2023-03-02T00:38:41;99539.94;;;12.26;52.91
9893;BME280;4985;49.092;8.542;2023-03-02T00:41:09;99537.47;;;12.24;52.91
9893;BME280;4985;49.092;8.542;2023-03-02T00:43:35;99537.31;;;12.26;52.91
9893;BME280;4985;49.092;8.542;2023-03-02T00:46:08;99535.66;;;12.24;52.92
9893;BME280;4985;49.092;8.542;2023-03-02T00:48:34;99535.66;;;12.24;52.90
9893;BME280;4985;49.092;8.542;2023-03-02T00:51:03;99525.91;;;12.25;52.89
9893;BME280;4985;49.092;8.542;2023-03-02T00:53:30;99525.91;;;12.25;52.89
9893;BME280;4985;49.092;8.542;2023-03-02T00:55:56;99528.72;;;12.23;52.89
9893;BME280;4985;49.092;8.542;2023-03-02T00:58:24;99520.63;;;12.25;52.89
9893;BME280;4985;49.092;8.542;2023-03-02T01:00:51;99520.81;;;12.23;52.89
9893;BME280;4985;49.092;8.542;2023-03-02T01:03:17;99519.00;;;12.24;52.90
9893;BME280;4985;49.092;8.542;2023-03-02T01:05:44;99525.09;;;12.24;52.90
9893;BME280;4985;49.092;8.542;2023-03-02T01:08:12;99516.34;;;12.24;52.89
9893;BME280;4985;49.092;8.542;2023-03-02T01:10:39;99525.09;;;12.24;52.90
9893;BME280;4985;49.092;8.542;2023-03-02T01:13:06;99514.69;;;12.23;52.88
9893;BME280;4985;49.092;8.542;2023-03-02T01:15:33;99518.16;;;12.23;52.91
9893;BME280;4985;49.092;8.542;2023-03-02T01:18:01;99517.31;;;12.23;52.90
9893;BME280;4985;49.092;8.542;2023-03-02T01:20:27;99503.16;;;12.24;52.90
9893;BME280;4985;49.092;8.542;2023-03-02T01:22:54;99500.66;;;12.22;52.89
9893;BME280;4985;49.092;8.542;2023-03-02T01:25:22;99503.28;;;12.22;52.89
9893;BME280;4985;49.092;8.542;2023-03-02T01:27:49;99504.97;;;12.23;52.90
9893;BME280;4985;49.092;8.542;2023-03-02T01:30:16;99501.47;;;12.23;52.90
9893;BME280;4985;49.092;8.542;2023-03-02T01:32:42;99498.03;;;12.22;52.90
9893;BME280;4985;49.092;8.542;2023-03-02T01:35:09;99493.72;;;12.21;52.89
9893;BME280;4985;49.092;8.542;2023-03-02T01:37:36;99494.56;;;12.22;52.90
9893;BME280;4985;49.092;8.542;2023-03-02T01:40:03;99495.38;;;12.22;52.87
9893;BME280;4985;49.092;8.542;2023-03-02T01:42:37;99490.09;;;12.22;52.87
9893;BME280;4985;49.092;8.542;2023-03-02T01:45:04;99484.81;;;12.22;52.87
9893;BME280;4985;49.092;8.542;2023-03-02T01:47:33;99484.81;;;12.22;52.88
9893;BME280;4985;49.092;8.542;2023-03-02T01:50:04;99484.81;;;12.22;52.88
9893;BME280;4985;49.092;8.542;2023-03-02T01:52:33;99484.00;;;12.22;52.88
9893;BME280;4985;49.092;8.542;2023-03-02T01:55:06;99483.84;;;12.23;52.87
9893;BME280;4985;49.092;8.542;2023-03-02T01:57:37;99485.81;;;12.21;52.87
9893;BME280;4985;49.092;8.542;2023-03-02T02:00:13;99478.72;;;12.22;52.88
9893;BME280;4985;49.092;8.542;2023-03-02T02:02:40;99476.91;;;12.22;52.86
9893;BME280;4985;49.092;8.542;2023-03-02T02:05:08;99465.88;;;12.19;52.87
9893;BME280;4985;49.092;8.542;2023-03-02T02:07:36;99462.06;;;12.21;52.87
9893;BME280;4985;49.092;8.542;2023-03-02T02:10:04;99465.69;;;12.20;52.88
9893;BME280;4985;49.092;8.542;2023-03-02T02:12:30;99459.44;;;12.21;52.87
9893;BME280;4985;49.092;8.542;2023-03-02T02:14:59;99456.78;;;12.21;52.88
9893;BME280;4985;49.092;8.542;2023-03-02T02:17:27;99461.25;;;12.21;52.87
9893;BME280;4985;49.092;8.542;2023-03-02T02:20:02;99456.78;;;12.21;52.85
9893;BME280;4985;49.092;8.542;2023-03-02T02:22:39;99451.50;;;12.21;52.85
9893;BME280;4985;49.092;8.542;2023-03-02T02:25:15;99456.78;;;12.21;52.86
9893;BME280;4985;49.092;8.542;2023-03-02T02:27:45;99455.97;;;12.21;52.85
9893;BME280;4985;49.092;8.542;2023-03-02T02:30:13;99445.41;;;12.21;52.84
9893;BME280;4985;49.092;8.542;2023-03-02T02:32:42;99448.88;;;12.21;52.84
9893;BME280;4985;49.092;8.542;2023-03-02T02:35:14;99441.94;;;12.20;52.85
9893;BME280;4985;49.092;8.542;2023-03-02T02:37:44;99440.31;;;12.19;52.84
9893;BME280;4985;49.092;8.542;2023-03-02T02:40:14;99445.41;;;12.21;52.84
9893;BME280;4985;49.092;8.542;2023-03-02T02:42:45;99440.31;;;12.19;52.85
9893;BME280;4985;49.092;8.542;2023-03-02T02:45:18;99441.94;;;12.20;52.84
9893;BME280;4985;49.092;8.542;2023-03-02T02:47:46;99437.66;;;12.19;52.85
9893;BME280;4985;49.092;8.542;2023-03-02T02:50:17;99437.66;;;12.19;52.85
9893;BME280;4985;49.092;8.542;2023-03-02T02:52:46;99437.66;;;12.19;52.84
9893;BME280;4985;49.092;8.542;2023-03-02T02:55:19;99433.38;;;12.18;52.87
9893;BME280;4985;49.092;8.542;2023-03-02T02:57:50;99440.31;;;12.19;52.85
9893;BME280;4985;49.092;8.542;2023-03-02T03:00:19;99429.91;;;12.18;52.86
9893;BME280;4985;49.092;8.542;2023-03-02T03:02:51;99437.66;;;12.19;52.86
9893;BME280;4985;49.092;8.542;2023-03-02T03:05:18;99431.91;;;12.16;52.88
9893;BME280;4985;49.092;8.542;2023-03-02T03:07:45;99434.38;;;12.17;52.86
9893;BME280;4985;49.092;8.542;2023-03-02T03:10:16;99432.38;;;12.19;52.84
9893;BME280;4985;49.092;8.542;2023-03-02T03:12:44;99436.03;;;12.18;52.86
9893;BME280;4985;49.092;8.542;2023-03-02T03:15:13;99433.56;;;12.17;52.86
9893;BME280;4985;49.092;8.542;2023-03-02T03:17:40;99440.47;;;12.18;52.86
9893;BME280;4985;49.092;8.542;2023-03-02T03:20:08;99440.47;;;12.18;52.87
9893;BME280;4985;49.092;8.542;2023-03-02T03:22:35;99438.00;;;12.16;52.88
9893;BME280;4985;49.092;8.542;2023-03-02T03:25:02;99435.38;;;12.16;52.86
9893;BME280;4985;49.092;8.542;2023-03-02T03:27:29;99438.00;;;12.16;52.86
9893;BME280;4985;49.092;8.542;2023-03-02T03:29:55;99432.72;;;12.16;52.86
9893;BME280;4985;49.092;8.542;2023-03-02T03:32:23;99438.00;;;12.16;52.85
9893;BME280;4985;49.092;8.542;2023-03-02T03:34:50;99430.91;;;12.17;52.86
9893;BME280;4985;49.092;8.542;2023-03-02T03:37:18;99432.72;;;12.16;52.87
9893;BME280;4985;49.092;8.542;2023-03-02T03:39:45;99443.28;;;12.16;52.85
9893;BME280;4985;49.092;8.542;2023-03-02T03:42:12;99435.53;;;12.15;52.84
9893;BME280;4985;49.092;8.542;2023-03-02T03:44:39;99449.56;;;12.15;52.84
9893;BME280;4985;49.092;8.542;2023-03-02T03:47:05;99439.19;;;12.14;52.86
9893;BME280;4985;49.092;8.542;2023-03-02T03:49:33;99438.34;;;12.13;52.87
9893;BME280;4985;49.092;8.542;2023-03-02T03:52:00;99444.47;;;12.14;52.87
9893;BME280;4985;49.092;8.542;2023-03-02T03:54:27;99440.00;;;12.14;52.86
9893;BME280;4985;49.092;8.542;2023-03-02T03:56:54;99442.63;;;12.14;52.86
9893;BME280;4985;49.092;8.542;2023-03-02T03:59:22;99441.47;;;12.09;52.89
9893;BME280;4985;49.092;8.542;2023-03-02T04:01:51;99451.56;;;12.13;52.88
9893;BME280;4985;49.092;8.542;2023-03-02T04:04:20;99427.81;;;12.05;52.87
9893;BME280;4985;49.092;8.542;2023-03-02T04:06:48;99436.72;;;12.12;52.86
9893;BME280;4985;49.092;8.542;2023-03-02T04:09:15;99438.34;;;12.13;52.87
9893;BME280;4985;49.092;8.542;2023-03-02T04:11:44;99443.63;;;12.13;52.88
9893;BME280;4985;49.092;8.542;2023-03-02T04:14:12;99430.94;;;12.09;52.87
9893;BME280;4985;49.092;8.542;2023-03-02T04:16:40;99442.81;;;12.13;52.85
9893;BME280;4985;49.092;8.542;2023-03-02T04:19:07;99452.56;;;12.12;52.86
9893;BME280;4985;49.092;8.542;2023-03-02T04:21:34;99446.44;;;12.12;52.86
9893;BME280;4985;49.092;8.542;2023-03-02T04:24:02;99443.81;;;12.12;52.87
9893;BME280;4985;49.092;8.542;2023-03-02T04:26:29;99441.31;;;12.10;52.87
9893;BME280;4985;49.092;8.542;2023-03-02T04:28:56;99447.59;;;12.09;52.89
9893;BME280;4985;49.092;8.542;2023-03-02T04:31:22;99444.78;;;12.11;52.88
9893;BME280;4985;49.092;8.542;2023-03-02T04:33:49;99445.59;;;12.11;52.89
9893;BME280;4985;49.092;8.542;2023-03-02T04:36:15;99448.41;;;12.10;52.88
9893;BME280;4985;49.092;8.542;2023-03-02T04:38:43;99449.22;;;12.10;52.88
9893;BME280;4985;49.092;8.542;2023-03-02T04:41:11;99450.22;;;12.09;52.89
9893;BME280;4985;49.092;8.542;2023-03-02T04:43:38;99458.13;;;12.09;52.89
9893;BME280;4985;49.092;8.542;2023-03-02T04:46:04;99452.87;;;12.09;52.88
9893;BME280;4985;49.092;8.542;2023-03-02T04:48:31;99447.59;;;12.09;52.89
9893;BME280;4985;49.092;8.542;2023-03-02T04:50:58;99446.75;;;12.09;52.87
9893;BME280;4985;49.092;8.542;2023-03-02T04:53:24;99442.31;;;12.09;52.87
9893;BME280;4985;49.092;8.542;2023-03-02T04:55:51;99437.03;;;12.09;52.88
9893;BME280;4985;49.092;8.542;2023-03-02T04:58:19;99430.94;;;12.09;52.88
9893;BME280;4985;49.092;8.542;2023-03-02T05:00:45;99432.75;;;12.08;52.88
9893;BME280;4985;49.092;8.542;2023-03-02T05:03:12;99433.56;;;12.09;52.87
9893;BME280;4985;49.092;8.542;2023-03-02T05:05:38;99439.03;;;12.07;52.88
9893;BME280;4985;49.092;8.542;2023-03-02T05:08:05;99432.75;;;12.08;52.87
9893;BME280;4985;49.092;8.542;2023-03-02T05:10:32;99433.75;;;12.07;52.87
9893;BME280;4985;49.092;8.542;2023-03-02T05:12:58;99432.75;;;12.08;52.85
9893;BME280;4985;49.092;8.542;2023-03-02T05:15:30;99432.75;;;12.08;52.85
9893;BME280;4985;49.092;8.542;2023-03-02T05:17:57;99435.38;;;12.08;52.83
9893;BME280;4985;49.092;8.542;2023-03-02T05:20:24;99432.75;;;12.08;52.83
9893;BME280;4985;49.092;8.542;2023-03-02T05:22:52;99428.47;;;12.07;52.85
9893;BME280;4985;49.092;8.542;2023-03-02T05:25:20;99433.56;;;12.09;52.84
9893;BME280;4985;49.092;8.542;2023-03-02T05:27:47;99439.19;;;12.06;52.83
9893;BME280;4985;49.092;8.542;2023-03-02T05:30:14;99436.37;;;12.07;52.85
9893;BME280;4985;49.092;8.542;2023-03-02T05:32:42;99431.28;;;12.06;52.84
9893;BME280;4985;49.092;8.542;2023-03-02T05:35:08;99437.37;;;12.06;52.84
9893;BME280;4985;49.092;8.542;2023-03-02T05:37:35;99440.84;;;12.07;52.86
9893;BME280;4985;49.092;8.542;2023-03-02T05:40:08;99435.72;;;12.05;52.86
9893;BME280;4985;49.092;8.542;2023-03-02T05:42:35;99444.66;;;12.04;52.88
9893;BME280;4985;49.092;8.542;2023-03-02T05:45:02;99447.28;;;12.04;52.88
9893;BME280;4985;49.092;8.542;2023-03-02T05:47:29;99448.94;;;12.05;52.87
9893;BME280;4985;49.092;8.542;2023-03-02T05:49:57;99447.28;;;12.04;52.86
9893;BME280;4985;49.092;8.542;2023-03-02T05:52:23;99447.28;;;12.04;52.86
9893;BME280;4985;49.092;8.542;2023-03-02T05:54:50;99451.72;;;12.04;52.87
9893;BME280;4985;49.092;8.542;2023-03-02T05:57:17;99440.34;;;12.03;52.87
9893;BME280;4985;49.092;8.542;2023-03-02T05:59:43;99448.28;;;12.03;52.86
9893;BME280;4985;49.092;8.542;2023-03-02T06:02:10;99441.34;;;12.02;52.87
9893;BME280;4985;49.092;8.542;2023-03-02T06:04:37;99446.63;;;12.02;52.89
9893;BME280;4985;49.092;8.542;2023-03-02T06:07:08;99453.56;;;12.03;52.88
9893;BME280;4985;49.092;8.542;2023-03-02T06:09:35;99448.28;;;12.03;52.87
9893;BME280;4985;49.092;8.542;2023-03-02T06:12:02;99449.28;;;12.02;52.87
9893;BME280;4985;49.092;8.542;2023-03-02T06:14:29;99454.53;;;12.02;52.88
9893;BME280;4985;49.092;8.542;2023-03-02T06:16:55;99460.81;;;12.01;52.89
9893;BME280;4985;49.092;8.542;2023-03-02T06:19:22;99464.28;;;12.02;52.90
9893;BME280;4985;49.092;8.542;2023-03-02T06:21:48;99466.91;;;12.02;52.86
9893;BME280;4985;49.092;8.542;2023-03-02T06:24:16;99470.56;;;12.01;52.88
9893;BME280;4985;49.092;8.542;2023-03-02T06:26:43;99474.00;;;11.93;52.87
9893;BME280;4985;49.092;8.542;2023-03-02T06:29:09;99482.75;;;12.02;52.88
9893;BME280;4985;49.092;8.542;2023-03-02T06:31:36;99481.94;;;12.01;52.87
9893;BME280;4985;49.092;8.542;2023-03-02T06:34:02;99489.03;;;12.01;52.88
9893;BME280;4985;49.092;8.542;2023-03-02T06:36:29;99486.38;;;12.01;52.88
9893;BME280;4985;49.092;8.542;2023-03-02T06:38:56;99488.84;;;11.94;52.88
9893;BME280;4985;49.092;8.542;2023-03-02T06:41:24;99481.94;;;12.01;52.88
9893;BME280;4985;49.092;8.542;2023-03-02T06:43:50;99486.53;;;11.99;52.89
9893;BME280;4985;49.092;8.542;2023-03-02T06:46:17;99489.16;;;11.99;52.87
9893;BME280;4985;49.092;8.542;2023-03-02T06:48:43;99485.69;;;11.99;52.87
9893;BME280;4985;49.092;8.542;2023-03-02T06:51:10;99491.97;;;11.98;52.88
9893;BME280;4985;49.092;8.542;2023-03-02T06:53:37;99493.62;;;11.99;52.90
9893;BME280;4985;49.092;8.542;2023-03-02T06:56:04;99492.78;;;11.98;52.91
9893;BME280;4985;49.092;8.542;2023-03-02T06:58:33;99492.78;;;11.98;52.93
9893;BME280;4985;49.092;8.542;2023-03-02T07:01:00;99492.78;;;11.98;52.92
9893;BME280;4985;49.092;8.542;2023-03-02T07:03:26;99489.50;;;11.96;52.93
9893;BME280;4985;49.092;8.542;2023-03-02T07:05:53;99500.06;;;11.96;52.94
9893;BME280;4985;49.092;8.542;2023-03-02T07:08:19;99498.06;;;11.98;52.91
9893;BME280;4985;49.092;8.542;2023-03-02T07:10:46;99498.25;;;11.97;52.92
9893;BME280;4985;49.092;8.542;2023-03-02T07:13:13;99497.41;;;11.96;52.95
9893;BME280;4985;49.092;8.542;2023-03-02T07:15:40;99493.94;;;11.95;52.94
9893;BME280;4985;49.092;8.542;2023-03-02T07:18:07;99492.97;;;11.97;52.93
9893;BME280;4985;49.092;8.542;2023-03-02T07:20:34;99490.31;;;11.97;52.91
9893;BME280;4985;49.092;8.542;2023-03-02T07:23:00;99491.16;;;11.97;52.93
9893;BME280;4985;49.092;8.542;2023-03-02T07:25:27;99501.69;;;11.97;52.92
9893;BME280;4985;49.092;8.542;2023-03-02T07:27:53;99500.06;;;11.96;52.92
9893;BME280;4985;49.092;8.542;2023-03-02T07:30:20;99503.69;;;11.95;52.94
9893;BME280;4985;49.092;8.542;2023-03-02T07:32:48;99509.78;;;11.95;52.94
9893;BME280;4985;49.092;8.542;2023-03-02T07:35:15;99503.69;;;11.95;52.95
9893;BME280;4985;49.092;8.542;2023-03-02T07:37:42;99508.13;;;11.94;52.96
9893;BME280;4985;49.092;8.542;2023-03-02T07:40:10;99507.31;;;11.94;52.96
9893;BME280;4985;49.092;8.542;2023-03-02T07:42:37;99512.59;;;11.94;52.96
9893;BME280;4985;49.092;8.542;2023-03-02T07:45:05;99506.00;;;11.90;52.98
9893;BME280;4985;49.092;8.542;2023-03-02T07:47:32;99515.22;;;11.94;52.99
9893;BME280;4985;49.092;8.542;2023-03-02T07:50:00;99513.59;;;11.93;52.98
9893;BME280;4985;49.092;8.542;2023-03-02T07:52:27;99515.41;;;11.92;52.99
9893;BME280;4985;49.092;8.542;2023-03-02T07:54:54;99518.03;;;11.92;53.01
9893;BME280;4985;49.092;8.542;2023-03-02T07:57:21;99515.41;;;11.92;53.01
9893;BME280;4985;49.092;8.542;2023-03-02T07:59:48;99521.50;;;11.93;53.00
9893;BME280;4985;49.092;8.542;2023-03-02T08:02:15;99519.84;;;11.92;53.03
9893;BME280;4985;49.092;8.542;2023-03-02T08:04:42;99520.03;;;11.90;53.03
9893;BME280;4985;49.092;8.542;2023-03-02T08:07:10;99517.22;;;11.92;53.02
9893;BME280;4985;49.092;8.542;2023-03-02T08:09:37;99519.03;;;11.91;53.01
9893;BME280;4985;49.092;8.542;2023-03-02T08:12:04;99514.56;;;11.92;53.03
9893;BME280;4985;49.092;8.542;2023-03-02T08:14:30;99517.22;;;11.92;53.04
9893;BME280;4985;49.092;8.542;2023-03-02T08:16:57;99520.84;;;11.91;53.04
9893;BME280;4985;49.092;8.542;2023-03-02T08:19:24;99518.88;;;11.93;53.00
9893;BME280;4985;49.092;8.542;2023-03-02T08:21:51;99521.34;;;11.94;52.97
9893;BME280;4985;49.092;8.542;2023-03-02T08:24:19;99518.69;;;11.94;52.94
9893;BME280;4985;49.092;8.542;2023-03-02T08:26:45;99521.97;;;11.97;52.89
9893;BME280;4985;49.092;8.542;2023-03-02T08:29:12;99517.53;;;11.97;52.87
9893;BME280;4985;49.092;8.542;2023-03-02T08:31:38;99519.16;;;11.98;52.86
9893;BME280;4985;49.092;8.542;2023-03-02T08:34:05;99517.53;;;11.97;52.84
9893;BME280;4985;49.092;8.542;2023-03-02T08:36:32;99518.19;;;11.99;52.83
9893;BME280;4985;49.092;8.542;2023-03-02T08:38:58;99514.25;;;11.95;52.84
9893;BME280;4985;49.092;8.542;2023-03-02T08:41:26;99511.25;;;11.98;52.81
9893;BME280;4985;49.092;8.542;2023-03-02T08:43:55;99520.81;;;11.99;52.81
9893;BME280;4985;49.092;8.542;2023-03-02T08:46:22;99519.16;;;11.98;52.81
9893;BME280;4985;49.092;8.542;2023-03-02T08:48:48;99508.63;;;11.98;52.82
9893;BME280;4985;49.092;8.542;2023-03-02T08:51:17;99509.44;;;11.99;52.81
9893;BME280;4985;49.092;8.542;2023-03-02T08:53:46;99510.59;;;11.96;52.83
9893;BME280;4985;49.092;8.542;2023-03-02T08:56:16;99496.13;;;11.92;52.87
9893;BME280;4985;49.092;8.542;2023-03-02T08:58:44;99493.13;;;11.95;52.88
9893;BME280;4985;49.092;8.542;2023-03-02T09:01:16;99494.12;;;11.94;52.91
9893;BME280;4985;49.092;8.542;2023-03-02T09:03:43;99495.78;;;11.95;52.90
9893;BME280;4985;49.092;8.542;2023-03-02T09:06:10;99490.66;;;11.93;52.95
9893;BME280;4985;49.092;8.542;2023-03-02T09:08:37;99492.47;;;11.93;52.95
9893;BME280;4985;49.092;8.542;2023-03-02T09:11:04;99488.19;;;11.92;52.96
9893;BME280;4985;49.092;8.542;2023-03-02T09:13:31;99485.56;;;11.92;52.98
9893;BME280;4985;49.092;8.542;2023-03-02T09:15:59;99493.47;;;11.92;52.99
9893;BME280;4985;49.092;8.542;2023-03-02T09:18:26;99493.47;;;11.92;53.00
9893;BME280;4985;49.092;8.542;2023-03-02T09:20:54;99495.12;;;11.93;52.99
9893;BME280;4985;49.092;8.542;2023-03-02T09:23:22;99492.47;;;11.93;52.98
9893;BME280;4985;49.092;8.542;2023-03-02T09:25:49;99487.19;;;11.93;52.96
9893;BME280;4985;49.092;8.542;2023-03-02T09:28:16;99493.94;;;11.95;52.92
9893;BME280;4985;49.092;8.542;2023-03-02T09:30:47;99494.12;;;11.94;52.96
9893;BME280;4985;49.092;8.542;2023-03-02T09:33:15;99499.56;;;11.92;52.98
9893;BME280;4985;49.092;8.542;2023-03-02T09:35:42;99498.75;;;11.92;53.00
9893;BME280;4985;49.092;8.542;2023-03-02T09:38:09;99494.47;;;11.91;53.03
9893;BME280;4985;49.092;8.542;2023-03-02T09:40:49;99498.09;;;11.90;53.06
9893;BME280;4985;49.092;8.542;2023-03-02T09:43:25;99498.75;;;11.84;53.10
9893;BME280;4985;49.092;8.542;2023-03-02T09:46:04;99482.09;;;11.83;53.12
9893;BME280;4985;49.092;8.542;2023-03-02T09:48:40;99494.94;;;11.86;53.15
9893;BME280;4985;49.092;8.542;2023-03-02T09:51:25;99502.69;;;11.88;53.16
9893;BME280;4985;49.092;8.542;2023-03-02T09:54:01;99489.66;;;11.86;53.16
9893;BME280;4985;49.092;8.542;2023-03-02T09:56:29;99492.13;;;11.88;53.13
9893;BME280;4985;49.092;8.542;2023-03-02T09:58:59;99499.06;;;11.89;53.13
9893;BME280;4985;49.092;8.542;2023-03-02T10:01:33;99499.22;;;11.87;53.13
9893;BME280;4985;49.092;8.542;2023-03-02T10:04:12;99502.69;;;11.88;53.16
9893;BME280;4985;49.092;8.542;2023-03-02T10:06:40;99493.78;;;11.89;53.14
9893;BME280;4985;49.092;8.542;2023-03-02T10:09:08;99491.16;;;11.89;53.14
9893;BME280;4985;49.092;8.542;2023-03-02T10:11:41;99495.47;;;11.90;53.13
9893;BME280;4985;49.092;8.542;2023-03-02T10:14:17;99493.78;;;11.89;53.12
9893;BME280;4985;49.092;8.542;2023-03-02T10:16:47;99486.84;;;11.88;53.14
9893;BME280;4985;49.092;8.542;2023-03-02T10:19:20;99495.59;;;11.88;53.15
9893;BME280;4985;49.092;8.542;2023-03-02T10:21:53;99489.03;;;11.84;53.16
9893;BME280;4985;49.092;8.542;2023-03-02T10:24:25;99492.00;;;11.89;53.13
9893;BME280;4985;49.092;8.542;2023-03-02T10:26:58;99497.09;;;11.91;53.13
9893;BME280;4985;49.092;8.542;2023-03-02T10:29:44;99495.47;;;11.90;53.12
9893;BME280;4985;49.092;8.542;2023-03-02T10:32:18;99499.91;;;11.89;53.13
9893;BME280;4985;49.092;8.542;2023-03-02T10:34:47;99499.06;;;11.89;53.14
9893;BME280;4985;49.092;8.542;2023-03-02T10:37:16;99497.28;;;11.89;53.15
9893;BME280;4985;49.092;8.542;2023-03-02T10:39:43;99491.16;;;11.89;53.15
9893;BME280;4985;49.092;8.542;2023-03-02T10:42:14;99499.06;;;11.89;53.15
9893;BME280;4985;49.092;8.542;2023-03-02T10:44:45;99495.59;;;11.88;53.17
9893;BME280;4985;49.092;8.542;2023-03-02T10:47:19;99494.62;;;11.89;53.17
9893;BME280;4985;49.092;8.542;2023-03-02T10:49:48;99489.19;;;11.83;53.18
9893;BME280;4985;49.092;8.542;2023-03-02T10:52:17;99492.13;;;11.88;53.19
9893;BME280;4985;49.092;8.542;2023-03-02T10:54:44;99488.50;;;11.89;53.20
9893;BME280;4985;49.092;8.542;2023-03-02T10:57:33;99487.19;;;11.85;53.21
9893;BME280;4985;49.092;8.542;2023-03-02T11:00:03;99497.41;;;11.88;53.23
9893;BME280;4985;49.092;8.542;2023-03-02T11:02:32;99486.72;;;11.89;53.23
9893;BME280;4985;49.092;8.542;2023-03-02T11:05:20;99482.41;;;11.88;53.22
9893;BME280;4985;49.092;8.542;2023-03-02T11:07:52;99486.72;;;11.89;53.21
9893;BME280;4985;49.092;8.542;2023-03-02T11:10:20;99491.16;;;11.89;53.22
9893;BME280;4985;49.092;8.542;2023-03-02T11:12:50;99483.22;;;11.89;53.22
9893;BME280;4985;49.092;8.542;2023-03-02T11:15:23;99483.22;;;11.89;53.23
9893;BME280;4985;49.092;8.542;2023-03-02T11:17:54;99477.97;;;11.89;53.27
9893;BME280;4985;49.092;8.542;2023-03-02T11:20:29;99475.31;;;11.89;53.24
9893;BME280;4985;49.092;8.542;2023-03-02T11:23:11;99471.03;;;11.88;53.24
9893;BME280;4985;49.092;8.542;2023-03-02T11:25:45;99477.97;;;11.89;53.27
9893;BME280;4985;49.092;8.542;2023-03-02T11:28:23;99472.69;;;11.89;53.27
9893;BME280;4985;49.092;8.542;2023-03-02T11:30:55;99471.84;;;11.88;53.27
9893;BME280;4985;49.092;8.542;2023-03-02T11:33:25;99472.69;;;11.89;53.29
9893;BME280;4985;49.092;8.542;2023-03-02T11:35:58;99471.72;;;11.90;53.26
9893;BME280;4985;49.092;8.542;2023-03-02T11:38:30;99470.91;;;11.89;53.28
9893;BME280;4985;49.092;8.542;2023-03-02T11:40:59;99465.09;;;11.86;53.28
9893;BME280;4985;49.092;8.542;2023-03-02T11:43:27;99471.72;;;11.90;53.30
9893;BME280;4985;49.092;8.542;2023-03-02T11:45:57;99471.53;;;11.91;53.27
9893;BME280;4985;49.092;8.542;2023-03-02T11:48:28;99468.09;;;11.91;53.26
9893;BME280;4985;49.092;8.542;2023-03-02T11:51:00;99465.44;;;11.91;53.25
9893;BME280;4985;49.092;8.542;2023-03-02T11:53:32;99466.09;;;11.93;53.21
9893;BME280;4985;49.092;8.542;2023-03-02T11:56:02;99465.09;;;11.94;53.21
9893;BME280;4985;49.092;8.542;2023-03-02T11:58:28;99452.91;;;11.93;53.21
9893;BME280;4985;49.092;8.542;2023-03-02T12:00:57;99452.91;;;11.93;53.23
9893;BME280;4985;49.092;8.542;2023-03-02T12:03:39;99447.81;;;11.91;53.23
9893;BME280;4985;49.092;8.542;2023-03-02T12:06:24;99447.16;;;11.89;53.26
9893;BME280;4985;49.092;8.542;2023-03-02T12:08:53;99450.28;;;11.93;53.27
9893;BME280;4985;49.092;8.542;2023-03-02T12:11:32;99449.28;;;11.94;53.26
9893;BME280;4985;49.092;8.542;2023-03-02T12:14:02;99442.34;;;11.93;53.25
9893;BME280;4985;49.092;8.542;2023-03-02T12:16:34;99446.63;;;11.94;53.28
9893;BME280;4985;49.092;8.542;2023-03-02T12:19:11;99437.91;;;11.93;53.28
9893;BME280;4985;49.092;8.542;2023-03-02T12:21:41;99444.00;;;11.94;53.32
9893;BME280;4985;49.092;8.542;2023-03-02T12:24:22;99441.38;;;11.94;53.34
9893;BME280;4985;49.092;8.542;2023-03-02T12:26:59;99438.72;;;11.94;53.33
9893;BME280;4985;49.092;8.542;2023-03-02T12:29:37;99433.44;;;11.94;53.33
9893;BME280;4985;49.092;8.542;2023-03-02T12:32:12;99436.09;;;11.94;53.35
9893;BME280;4985;49.092;8.542;2023-03-02T12:34:52;99435.25;;;11.93;53.36
9893;BME280;4985;49.092;8.542;2023-03-02T12:37:23;99436.09;;;11.94;53.37
9893;BME280;4985;49.092;8.542;2023-03-02T12:40:32;99435.09;;;11.95;53.37
9893;BME280;4985;49.092;8.542;2023-03-02T12:43:31;99440.38;;;11.95;53.35
9893;BME280;4985;49.092;8.542;2023-03-02T12:46:19;99429.81;;;11.95;53.36
9893;BME280;4985;49.092;8.542;2023-03-02T12:48:56;99427.81;;;11.97;53.36
9893;BME280;4985;49.092;8.542;2023-03-02T12:51:26;99422.56;;;11.97;53.36
9893;BME280;4985;49.092;8.542;2023-03-02T12:54:06;99426.84;;;11.98;53.35
9893;BME280;4985;49.092;8.542;2023-03-02T12:56:37;99421.06;;;11.94;53.32
9893;BME280;4985;49.092;8.542;2023-03-02T12:59:04;99424.84;;;12.00;53.33
9893;BME280;4985;49.092;8.542;2023-03-02T13:01:31;99423.88;;;12.01;53.30
9893;BME280;4985;49.092;8.542;2023-03-02T13:03:59;99422.19;;;12.00;53.29
9893;BME280;4985;49.092;8.542;2023-03-02T13:06:27;99414.97;;;12.02;53.29
9893;BME280;4985;49.092;8.542;2023-03-02T13:08:57;99409.69;;;12.02;53.26
9893;BME280;4985;49.092;8.542;2023-03-02T13:11:27;99411.66;;;12.00;53.26
9893;BME280;4985;49.092;8.542;2023-03-02T13:13:57;99408.19;;;12.00;53.27
9893;BME280;4985;49.092;8.542;2023-03-02T13:16:26;99412.16;;;12.04;53.28
9893;BME280;4985;49.092;8.542;2023-03-02T13:18:55;99403.41;;;12.03;53.30
9893;BME280;4985;49.092;8.542;2023-03-02T13:21:28;99406.87;;;12.04;53.30
9893;BME280;4985;49.092;8.542;2023-03-02T13:23:56;99390.41;;;12.02;53.31
9893;BME280;4985;49.092;8.542;2023-03-02T13:26:27;99404.88;;;12.06;53.28
9893;BME280;4985;49.092;8.542;2023-03-02T13:29:01;99402.25;;;12.06;53.27
9893;BME280;4985;49.092;8.542;2023-03-02T13:31:28;99404.88;;;12.06;53.27
9893;BME280;4985;49.092;8.542;2023-03-02T13:33:56;99408.19;;;12.08;53.28